sensor_id;sensor_type;location;lat;lon;timestamp;pressure;altitude;pressure_sealevel;temperature;humidity
7052;BME280;3567;52.444;13.556;2023-07-20T00:00:44;100709.56;;;16.29;100.00
7052;BME280;3567;52.444;13.556;2023-07-20T00:03:13;100716.59;;;16.30;100.00
7052;BME280;3567;52.444;13.556;2023-07-20T00:05:44;100708.25;;;16.31;100.00
7052;BME280;3567;52.444;13.556;2023-07-20T00:08:10;100716.59;;;16.30;100.00
7052;BME280;3567;52.444;13.556;2023-07-20T00:10:35;100716.88;;;16.28;100.00
7052;BME280;3567;52.444;13.556;2023-07-20T00:13:01;100710.94;;;16.26;100.00
7052;BME280;3567;52.444;13.556;2023-07-20T00:15:26;100714.97;;;16.23;100.00
7052;BME280;3567;52.444;13.556;2023-07-20T00:17:51;100723.63;;;16.20;100.00
7052;BME280;3567;52.444;13.556;2023-07-20T00:20:17;100719.31;;;16.19;100.00
7052;BME280;3567;52.444;13.556;2023-07-20T00:22:43;100727.94;;;16.16;100.00
7052;BME280;3567;52.444;13.556;2023-07-20T00:25:08;100724.41;;;16.16;100.00
7052;BME280;3567;52.444;13.556;2023-07-20T00:27:34;100725.75;;;16.13;100.00
7052;BME280;3567;52.444;13.556;2023-07-20T00:29:59;100712.78;;;16.10;100.00
7052;BME280;3567;52.444;13.556;2023-07-20T00:32:24;100715.75;;;16.09;100.00
7052;BME280;3567;52.444;13.556;2023-07-20T00:34:50;100714.13;;;16.08;100.00
7052;BME280;3567;52.444;13.556;2023-07-20T00:37:15;100718.97;;;16.06;100.00
7052;BME280;3567;52.444;13.556;2023-07-20T00:39:40;100717.59;;;16.03;100.00
7052;BME280;3567;52.444;13.556;2023-07-20T00:42:06;100714.91;;;15.98;100.00
7052;BME280;3567;52.444;13.556;2023-07-20T00:44:31;100717.88;;;15.96;100.00
7052;BME280;3567;52.444;13.556;2023-07-20T00:46:57;100718.13;;;15.95;100.00
7052;BME280;3567;52.444;13.556;2023-07-20T00:49:23;100719.22;;;15.94;100.00
7052;BME280;3567;52.444;13.556;2023-07-20T00:51:49;100715.13;;;15.91;100.00
7052;BME280;3567;52.444;13.556;2023-07-20T00:54:15;100724.03;;;15.87;100.00
7052;BME280;3567;52.444;13.556;2023-07-20T00:56:41;100722.97;;;15.83;100.00
7052;BME280;3567;52.444;13.556;2023-07-20T00:59:07;100721.03;;;15.78;100.00
7052;BME280;3567;52.444;13.556;2023-07-20T01:01:32;100719.94;;;15.74;100.00
7052;BME280;3567;52.444;13.556;2023-07-20T01:03:58;100719.13;;;15.74;100.00
7052;BME280;3567;52.444;13.556;2023-07-20T01:06:39;100713.44;;;15.70;100.00
7052;BME280;3567;52.444;13.556;2023-07-20T01:12:10;100715.28;;;15.64;100.00
7052;BME280;3567;52.444;13.556;2023-07-20T01:14:37;100709.31;;;15.62;100.00
7052;BME280;3567;52.444;13.556;2023-07-20T01:17:03;100715.00;;;15.61;100.00
7052;BME280;3567;52.444;13.556;2023-07-20T01:19:28;100715.22;;;15.59;100.00
7052;BME280;3567;52.444;13.556;2023-07-20T01:22:11;100721.72;;;15.58;100.00
7052;BME280;3567;52.444;13.556;2023-07-20T01:24:59;100720.59;;;15.54;100.00
7052;BME280;3567;52.444;13.556;2023-07-20T01:30:33;100722.47;;;15.49;100.00
7052;BME280;3567;52.444;13.556;2023-07-20T01:33:00;100720.84;;;15.48;100.00
7052;BME280;3567;52.444;13.556;2023-07-20T01:35:28;100729.22;;;15.46;100.00
7052;BME280;3567;52.444;13.556;2023-07-20T01:37:55;100729.22;;;15.46;100.00
7052;BME280;3567;52.444;13.556;2023-07-20T01:40:22;100720.53;;;15.44;100.00
7052;BME280;3567;52.444;13.556;2023-07-20T01:42:48;100727.03;;;15.43;100.00
7052;BME280;3567;52.444;13.556;2023-07-20T01:45:14;100725.41;;;15.42;100.00
7052;BME280;3567;52.444;13.556;2023-07-20T01:47:39;100721.91;;;15.41;100.00
7052;BME280;3567;52.444;13.556;2023-07-20T01:50:06;100721.09;;;15.41;100.00
7052;BME280;3567;52.444;13.556;2023-07-20T01:52:31;100718.13;;;15.42;100.00
7052;BME280;3567;52.444;13.556;2023-07-20T01:54:57;100711.91;;;15.42;100.00
7052;BME280;3567;52.444;13.556;2023-07-20T01:57:22;100711.91;;;15.42;100.00
7052;BME280;3567;52.444;13.556;2023-07-20T01:59:47;100714.59;;;15.42;100.00
7052;BME280;3567;52.444;13.556;2023-07-20T02:02:13;100717.56;;;15.40;100.00
7052;BME280;3567;52.444;13.556;2023-07-20T02:04:38;100722.72;;;15.42;100.00
7052;BME280;3567;52.444;13.556;2023-07-20T02:07:03;100713.00;;;15.41;100.00
7052;BME280;3567;52.444;13.556;2023-07-20T02:09:29;100720.50;;;15.39;100.00
7052;BME280;3567;52.444;13.556;2023-07-20T02:11:54;100712.69;;;15.37;100.00
7052;BME280;3567;52.444;13.556;2023-07-20T02:14:20;100715.94;;;15.34;100.00
7052;BME280;3567;52.444;13.556;2023-07-20T02:16:47;100712.94;;;15.31;100.00
7052;BME280;3567;52.444;13.556;2023-07-20T02:19:18;100718.59;;;15.29;100.00
7052;BME280;3567;52.444;13.556;2023-07-20T02:21:43;100716.13;;;15.28;100.00
7052;BME280;3567;52.444;13.556;2023-07-20T02:24:09;100710.19;;;15.26;100.00
7052;BME280;3567;52.444;13.556;2023-07-20T02:26:34;100710.47;;;15.24;100.00
7052;BME280;3567;52.444;13.556;2023-07-20T02:28:59;100709.34;;;15.20;100.00
7052;BME280;3567;52.444;13.556;2023-07-20T02:31:25;100707.41;;;15.15;100.00
7052;BME280;3567;52.444;13.556;2023-07-20T02:33:50;100707.69;;;15.14;100.00
7052;BME280;3567;52.444;13.556;2023-07-20T02:36:15;100711.97;;;15.10;100.00
7052;BME280;3567;52.444;13.556;2023-07-20T02:38:42;100707.88;;;15.07;100.00
7052;BME280;3567;52.444;13.556;2023-07-20T02:41:07;100707.66;;;15.09;100.00
7052;BME280;3567;52.444;13.556;2023-07-20T02:43:33;100704.69;;;15.10;100.00
7052;BME280;3567;52.444;13.556;2023-07-20T02:45:58;100711.97;;;15.10;100.00
7052;BME280;3567;52.444;13.556;2023-07-20T02:48:23;100710.09;;;15.10;100.00
7052;BME280;3567;52.444;13.556;2023-07-20T02:50:49;100717.38;;;15.10;100.00
7052;BME280;3567;52.444;13.556;2023-07-20T02:53:17;100721.69;;;15.11;100.00
7052;BME280;3567;52.444;13.556;2023-07-20T02:55:43;100721.72;;;15.16;100.00
7052;BME280;3567;52.444;13.556;2023-07-20T02:58:08;100724.72;;;15.19;100.00
7052;BME280;3567;52.444;13.556;2023-07-20T03:00:33;100729.59;;;15.23;100.00
7052;BME280;3567;52.444;13.556;2023-07-20T03:02:59;100731.78;;;15.26;100.00
7052;BME280;3567;52.444;13.556;2023-07-20T03:05:24;100734.22;;;15.27;100.00
7052;BME280;3567;52.444;13.556;2023-07-20T03:07:53;100744.75;;;15.29;100.00
7052;BME280;3567;52.444;13.556;2023-07-20T03:10:19;100745.84;;;15.33;100.00
7052;BME280;3567;52.444;13.556;2023-07-20T03:12:44;100740.44;;;15.33;100.00
7052;BME280;3567;52.444;13.556;2023-07-20T03:15:10;100745.84;;;15.33;100.00
7052;BME280;3567;52.444;13.556;2023-07-20T03:17:35;100756.13;;;15.36;100.00
7052;BME280;3567;52.444;13.556;2023-07-20T03:20:00;100749.13;;;15.35;100.00
7052;BME280;3567;52.444;13.556;2023-07-20T03:22:26;100742.66;;;15.36;100.00
7052;BME280;3567;52.444;13.556;2023-07-20T03:24:52;100752.38;;;15.37;100.00
7052;BME280;3567;52.444;13.556;2023-07-20T03:27:17;100745.03;;;15.32;100.00
7052;BME280;3567;52.444;13.556;2023-07-20T03:29:43;100745.31;;;15.31;100.00
7052;BME280;3567;52.444;13.556;2023-07-20T03:32:09;100744.53;;;15.35;100.00
7052;BME280;3567;52.444;13.556;2023-07-20T03:34:35;100752.06;;;15.33;100.00
7052;BME280;3567;52.444;13.556;2023-07-20T03:37:01;100758.81;;;15.31;100.00
7052;BME280;3567;52.444;13.556;2023-07-20T03:39:30;100752.31;;;15.32;100.00
7052;BME280;3567;52.444;13.556;2023-07-20T03:41:55;100748.00;;;15.31;100.00
7052;BME280;3567;52.444;13.556;2023-07-20T03:44:22;100751.50;;;15.31;100.00
7052;BME280;3567;52.444;13.556;2023-07-20T03:46:47;100747.19;;;15.30;100.00
7052;BME280;3567;52.444;13.556;2023-07-20T03:49:13;100752.28;;;15.27;100.00
7052;BME280;3567;52.444;13.556;2023-07-20T03:51:41;100745.56;;;15.29;100.00
7052;BME280;3567;52.444;13.556;2023-07-20T03:54:06;100755.84;;;15.32;100.00
7052;BME280;3567;52.444;13.556;2023-07-20T03:56:33;100756.66;;;15.33;100.00
7052;BME280;3567;52.444;13.556;2023-07-20T03:59:00;100755.84;;;15.32;100.00
7052;BME280;3567;52.444;13.556;2023-07-20T04:01:25;100751.25;;;15.33;100.00
7052;BME280;3567;52.444;13.556;2023-07-20T04:03:51;100752.88;;;15.34;100.00
7052;BME280;3567;52.444;13.556;2023-07-20T04:06:16;100761.56;;;15.41;100.00
7052;BME280;3567;52.444;13.556;2023-07-20T04:08:43;100760.00;;;15.45;100.00
7052;BME280;3567;52.444;13.556;2023-07-20T04:11:08;100766.75;;;15.48;100.00
7052;BME280;3567;52.444;13.556;2023-07-20T04:13:33;100767.00;;;15.46;100.00
7052;BME280;3567;52.444;13.556;2023-07-20T04:16:00;100767.28;;;15.50;100.00
7052;BME280;3567;52.444;13.556;2023-07-20T04:18:25;100763.53;;;15.51;100.00
7052;BME280;3567;52.444;13.556;2023-07-20T04:20:51;100767.03;;;15.51;100.00
7052;BME280;3567;52.444;13.556;2023-07-20T04:23:16;100762.19;;;15.53;100.00
7052;BME280;3567;52.444;13.556;2023-07-20T04:25:42;100762.72;;;15.50;100.00
7052;BME280;3567;52.444;13.556;2023-07-20T04:28:08;100767.28;;;15.50;100.00
7052;BME280;3567;52.444;13.556;2023-07-20T04:30:35;100756.50;;;15.55;100.00
7052;BME280;3567;52.444;13.556;2023-07-20T04:33:01;100763.28;;;15.57;100.00
7052;BME280;3567;52.444;13.556;2023-07-20T04:38:11;100760.88;;;15.56;100.00
7052;BME280;3567;52.444;13.556;2023-07-20T04:40:36;100769.19;;;15.54;100.00
7052;BME280;3567;52.444;13.556;2023-07-20T04:43:01;100774.59;;;15.54;100.00
7052;BME280;3567;52.444;13.556;2023-07-20T04:45:27;100774.59;;;15.54;100.00
7052;BME280;3567;52.444;13.556;2023-07-20T04:47:52;100775.72;;;15.58;100.00
7052;BME280;3567;52.444;13.556;2023-07-20T04:50:17;100778.97;;;15.60;100.00
7052;BME280;3567;52.444;13.556;2023-07-20T04:52:43;100776.03;;;15.62;100.00
7052;BME280;3567;52.444;13.556;2023-07-20T04:55:08;100786.00;;;15.61;100.00
7052;BME280;3567;52.444;13.556;2023-07-20T04:57:34;100777.91;;;15.61;100.00
7052;BME280;3567;52.444;13.556;2023-07-20T04:59:59;100783.06;;;15.63;100.00
7052;BME280;3567;52.444;13.556;2023-07-20T05:02:25;100777.41;;;15.64;100.00
7052;BME280;3567;52.444;13.556;2023-07-20T05:04:50;100787.69;;;15.67;100.00
7052;BME280;3567;52.444;13.556;2023-07-20T05:07:18;100780.69;;;15.71;100.00
7052;BME280;3567;52.444;13.556;2023-07-20T05:09:43;100779.09;;;15.76;100.00
7052;BME280;3567;52.444;13.556;2023-07-20T05:12:09;100779.09;;;15.81;100.00
7052;BME280;3567;52.444;13.556;2023-07-20T05:14:34;100775.88;;;15.79;100.00
7052;BME280;3567;52.444;13.556;2023-07-20T05:16:59;100776.41;;;15.81;100.00
7052;BME280;3567;52.444;13.556;2023-07-20T05:19:25;100779.69;;;15.83;100.00
7052;BME280;3567;52.444;13.556;2023-07-20T05:21:51;100786.19;;;15.92;100.00
7052;BME280;3567;52.444;13.556;2023-07-20T05:24:16;100780.28;;;15.95;100.00
7052;BME280;3567;52.444;13.556;2023-07-20T05:26:41;100787.31;;;16.01;100.00
7052;BME280;3567;52.444;13.556;2023-07-20T05:29:07;100782.75;;;16.07;100.00
7052;BME280;3567;52.444;13.556;2023-07-20T05:31:32;100787.09;;;16.13;100.00
7052;BME280;3567;52.444;13.556;2023-07-20T05:33:58;100790.34;;;16.10;100.00
7052;BME280;3567;52.444;13.556;2023-07-20T05:36:24;100789.53;;;16.09;100.00
7052;BME280;3567;52.444;13.556;2023-07-20T05:38:49;100787.34;;;16.06;100.00
7052;BME280;3567;52.444;13.556;2023-07-20T05:41:14;100789.56;;;16.14;100.00
7052;BME280;3567;52.444;13.556;2023-07-20T05:43:40;100790.63;;;16.18;100.00
7052;BME280;3567;52.444;13.556;2023-07-20T05:46:07;100792.28;;;16.30;100.00
7052;BME280;3567;52.444;13.556;2023-07-20T05:48:32;100792.84;;;16.32;100.00
7052;BME280;3567;52.444;13.556;2023-07-20T05:50:58;100790.72;;;16.39;100.00
7052;BME280;3567;52.444;13.556;2023-07-20T05:53:23;100793.72;;;16.47;100.00
7052;BME280;3567;52.444;13.556;2023-07-20T05:55:53;100801.84;;;16.53;100.00
7052;BME280;3567;52.444;13.556;2023-07-20T05:58:19;100793.47;;;16.64;100.00
7052;BME280;3567;52.444;13.556;2023-07-20T06:00:47;100800.56;;;16.75;100.00
7052;BME280;3567;52.444;13.556;2023-07-20T06:03:13;100793.28;;;16.86;100.00
7052;BME280;3567;52.444;13.556;2023-07-20T06:05:42;100791.94;;;16.94;100.00
7052;BME280;3567;52.444;13.556;2023-07-20T06:08:11;100788.16;;;16.95;100.00
7052;BME280;3567;52.444;13.556;2023-07-20T06:10:37;100801.13;;;17.03;100.00
7052;BME280;3567;52.444;13.556;2023-07-20T06:13:02;100811.44;;;17.06;100.00
7052;BME280;3567;52.444;13.556;2023-07-20T06:15:36;100811.44;;;17.01;100.00
7052;BME280;3567;52.444;13.556;2023-07-20T06:18:04;100814.13;;;17.01;100.00
7052;BME280;3567;52.444;13.556;2023-07-20T06:20:29;100820.91;;;17.09;100.00
7052;BME280;3567;52.444;13.556;2023-07-20T06:22:55;100817.94;;;17.10;100.00
7052;BME280;3567;52.444;13.556;2023-07-20T06:25:20;100828.19;;;17.08;100.00
7052;BME280;3567;52.444;13.556;2023-07-20T06:27:46;100819.53;;;17.01;100.00
7052;BME280;3567;52.444;13.556;2023-07-20T06:30:11;100815.75;;;17.07;100.00
7052;BME280;3567;52.444;13.556;2023-07-20T06:32:38;100816.28;;;17.14;100.00
7052;BME280;3567;52.444;13.556;2023-07-20T06:35:03;100818.47;;;17.17;100.00
7052;BME280;3567;52.444;13.556;2023-07-20T06:37:29;100812.53;;;17.15;100.00
7052;BME280;3567;52.444;13.556;2023-07-20T06:39:54;100815.75;;;17.12;100.00
7052;BME280;3567;52.444;13.556;2023-07-20T06:42:20;100819.53;;;17.01;100.00
7052;BME280;3567;52.444;13.556;2023-07-20T06:44:45;100821.72;;;16.94;100.00
7052;BME280;3567;52.444;13.556;2023-07-20T06:47:10;100826.56;;;16.92;100.00
7052;BME280;3567;52.444;13.556;2023-07-20T06:49:42;100825.75;;;16.91;100.00
7052;BME280;3567;52.444;13.556;2023-07-20T06:52:15;100832.25;;;16.90;100.00
7052;BME280;3567;52.444;13.556;2023-07-20T06:54:40;100832.78;;;16.92;100.00
7052;BME280;3567;52.444;13.556;2023-07-20T06:57:08;100833.88;;;17.01;100.00
7052;BME280;3567;52.444;13.556;2023-07-20T06:59:34;100839.03;;;17.08;100.00
7052;BME280;3567;52.444;13.556;2023-07-20T07:01:59;100837.16;;;17.19;100.00
7052;BME280;3567;52.444;13.556;2023-07-20T07:04:32;100835.25;;;17.29;100.00
7052;BME280;3567;52.444;13.556;2023-07-20T07:06:58;100838.53;;;17.42;100.00
7052;BME280;3567;52.444;13.556;2023-07-20T07:09:24;100839.03;;;17.44;99.46
7052;BME280;3567;52.444;13.556;2023-07-20T07:11:49;100836.34;;;17.49;97.55
7052;BME280;3567;52.444;13.556;2023-07-20T07:14:15;100839.03;;;17.59;98.28
7052;BME280;3567;52.444;13.556;2023-07-20T07:16:43;100845.78;;;17.67;97.44
7052;BME280;3567;52.444;13.556;2023-07-20T07:19:12;100837.41;;;17.73;97.29
7052;BME280;3567;52.444;13.556;2023-07-20T07:21:37;100841.75;;;17.79;96.66
7052;BME280;3567;52.444;13.556;2023-07-20T07:24:10;100834.69;;;17.78;96.74
7052;BME280;3567;52.444;13.556;2023-07-20T07:26:36;100841.44;;;17.91;96.18
7052;BME280;3567;52.444;13.556;2023-07-20T07:29:03;100831.94;;;17.94;93.91
7052;BME280;3567;52.444;13.556;2023-07-20T07:31:29;100845.47;;;18.04;92.99
7052;BME280;3567;52.444;13.556;2023-07-20T07:33:56;100844.91;;;18.12;91.70
7052;BME280;3567;52.444;13.556;2023-07-20T07:36:24;100851.66;;;18.20;90.37
7052;BME280;3567;52.444;13.556;2023-07-20T07:39:05;100843.75;;;18.39;89.77
7052;BME280;3567;52.444;13.556;2023-07-20T07:41:34;100844.75;;;18.48;89.21
7052;BME280;3567;52.444;13.556;2023-07-20T07:43:59;100849.13;;;18.49;88.01
7052;BME280;3567;52.444;13.556;2023-07-20T07:46:25;100840.66;;;18.55;88.50
7052;BME280;3567;52.444;13.556;2023-07-20T07:48:52;100847.41;;;18.63;87.68
7052;BME280;3567;52.444;13.556;2023-07-20T07:51:18;100839.25;;;18.63;86.83
7052;BME280;3567;52.444;13.556;2023-07-20T07:53:45;100834.38;;;18.65;86.53
7052;BME280;3567;52.444;13.556;2023-07-20T07:56:10;100837.63;;;18.72;85.98
7052;BME280;3567;52.444;13.556;2023-07-20T07:58:36;100828.91;;;18.80;86.74
7052;BME280;3567;52.444;13.556;2023-07-20T08:01:02;100831.47;;;19.01;87.51
7052;BME280;3567;52.444;13.556;2023-07-20T08:03:27;100843.56;;;19.19;86.31
7052;BME280;3567;52.444;13.556;2023-07-20T08:05:56;100837.34;;;19.47;85.77
7052;BME280;3567;52.444;13.556;2023-07-20T08:08:23;100846.09;;;19.73;84.49
7052;BME280;3567;52.444;13.556;2023-07-20T08:10:48;100833.41;;;19.93;81.83
7052;BME280;3567;52.444;13.556;2023-07-20T08:13:17;100836.97;;;20.12;80.63
7052;BME280;3567;52.444;13.556;2023-07-20T08:15:50;100841.25;;;20.18;79.45
7052;BME280;3567;52.444;13.556;2023-07-20T08:18:17;100839.63;;;20.17;80.02
7052;BME280;3567;52.444;13.556;2023-07-20T08:20:46;100830.03;;;20.01;78.96
7052;BME280;3567;52.444;13.556;2023-07-20T08:23:12;100829.75;;;20.02;78.95
7052;BME280;3567;52.444;13.556;2023-07-20T08:25:38;100838.13;;;20.06;78.94
7052;BME280;3567;52.444;13.556;2023-07-20T08:28:07;100840.88;;;20.06;77.60
7052;BME280;3567;52.444;13.556;2023-07-20T08:30:46;100853.66;;;20.05;77.45
7052;BME280;3567;52.444;13.556;2023-07-20T08:33:15;100860.88;;;19.91;74.79
7052;BME280;3567;52.444;13.556;2023-07-20T08:35:42;100854.56;;;19.72;74.56
7052;BME280;3567;52.444;13.556;2023-07-20T08:38:20;100852.63;;;19.72;73.83
7052;BME280;3567;52.444;13.556;2023-07-20T08:46:41;100860.00;;;19.72;73.47
7052;BME280;3567;52.444;13.556;2023-07-20T08:49:40;100861.59;;;19.73;75.29
7052;BME280;3567;52.444;13.556;2023-07-20T08:52:11;100857.72;;;19.79;76.54
7052;BME280;3567;52.444;13.556;2023-07-20T08:54:42;100856.78;;;19.94;76.01
7052;BME280;3567;52.444;13.556;2023-07-20T08:57:14;100850.69;;;20.02;74.05
7052;BME280;3567;52.444;13.556;2023-07-20T09:00:29;100853.13;;;20.27;73.07
7052;BME280;3567;52.444;13.556;2023-07-20T09:02:55;100855.06;;;20.51;71.15
7052;BME280;3567;52.444;13.556;2023-07-20T09:05:29;100850.06;;;20.58;69.14
7052;BME280;3567;52.444;13.556;2023-07-20T09:08:02;100866.63;;;20.61;69.76
7052;BME280;3567;52.444;13.556;2023-07-20T09:10:31;100860.94;;;20.58;70.33
7052;BME280;3567;52.444;13.556;2023-07-20T09:13:04;100868.06;;;20.54;69.00
7052;BME280;3567;52.444;13.556;2023-07-20T09:15:34;100860.41;;;20.32;69.28
7052;BME280;3567;52.444;13.556;2023-07-20T09:18:01;100869.50;;;20.22;71.36
7052;BME280;3567;52.444;13.556;2023-07-20T09:20:37;100858.38;;;20.19;70.58
7052;BME280;3567;52.444;13.556;2023-07-20T09:23:07;100858.00;;;20.30;69.48
7052;BME280;3567;52.444;13.556;2023-07-20T09:25:50;100859.47;;;20.47;71.39
7052;BME280;3567;52.444;13.556;2023-07-20T09:28:21;100851.03;;;20.86;70.43
7052;BME280;3567;52.444;13.556;2023-07-20T09:30:47;100858.09;;;21.06;66.24
7052;BME280;3567;52.444;13.556;2023-07-20T09:33:27;100852.59;;;21.25;66.27
7052;BME280;3567;52.444;13.556;2023-07-20T09:35:52;100851.88;;;21.38;64.44
7052;BME280;3567;52.444;13.556;2023-07-20T09:38:18;100853.13;;;21.27;62.89
7052;BME280;3567;52.444;13.556;2023-07-20T09:40:46;100856.91;;;21.31;64.30
7052;BME280;3567;52.444;13.556;2023-07-20T09:43:15;100853.41;;;21.44;62.89
7052;BME280;3567;52.444;13.556;2023-07-20T09:45:46;100859.38;;;21.46;61.33
7052;BME280;3567;52.444;13.556;2023-07-20T09:50:57;100850.81;;;21.53;63.82
7052;BME280;3567;52.444;13.556;2023-07-20T09:53:26;100856.56;;;21.51;63.20
7052;BME280;3567;52.444;13.556;2023-07-20T09:55:52;100852.34;;;21.59;63.94
7052;BME280;3567;52.444;13.556;2023-07-20T09:58:31;100856.81;;;21.82;64.78
7052;BME280;3567;52.444;13.556;2023-07-20T10:01:02;100861.88;;;21.89;61.86
7052;BME280;3567;52.444;13.556;2023-07-20T10:03:34;100859.06;;;21.94;62.39
7052;BME280;3567;52.444;13.556;2023-07-20T10:06:06;100856.75;;;22.01;62.04
7052;BME280;3567;52.444;13.556;2023-07-20T10:08:36;100848.66;;;22.10;59.32
7052;BME280;3567;52.444;13.556;2023-07-20T10:11:05;100859.06;;;22.08;59.58
7052;BME280;3567;52.444;13.556;2023-07-20T10:13:37;100845.22;;;21.90;59.03
7052;BME280;3567;52.444;13.556;2023-07-20T10:16:26;100852.94;;;21.56;59.56
7052;BME280;3567;52.444;13.556;2023-07-20T10:19:31;100854.69;;;21.33;61.62
7052;BME280;3567;52.444;13.556;2023-07-20T10:22:12;100858.00;;;21.11;61.50
7052;BME280;3567;52.444;13.556;2023-07-20T10:24:39;100854.13;;;20.79;61.41
7052;BME280;3567;52.444;13.556;2023-07-20T10:27:06;100856.81;;;20.60;63.52
7052;BME280;3567;52.444;13.556;2023-07-20T10:29:32;100856.44;;;20.48;64.36
7052;BME280;3567;52.444;13.556;2023-07-20T10:31:59;100856.72;;;20.47;66.12
7052;BME280;3567;52.444;13.556;2023-07-20T10:34:28;100860.34;;;20.37;66.33
7052;BME280;3567;52.444;13.556;2023-07-20T10:36:57;100857.34;;;20.38;66.87
7052;BME280;3567;52.444;13.556;2023-07-20T10:39:27;100858.94;;;20.39;66.82
7052;BME280;3567;52.444;13.556;2023-07-20T10:42:10;100867.28;;;20.72;65.84
7052;BME280;3567;52.444;13.556;2023-07-20T10:44:44;100863.44;;;20.92;65.63
7052;BME280;3567;52.444;13.556;2023-07-20T10:47:12;100858.75;;;20.98;65.55
7052;BME280;3567;52.444;13.556;2023-07-20T10:50:13;100856.31;;;21.34;63.47
7052;BME280;3567;52.444;13.556;2023-07-20T10:52:42;100868.78;;;22.00;63.38
7052;BME280;3567;52.444;13.556;2023-07-20T10:55:14;100865.28;;;22.27;62.50
7052;BME280;3567;52.444;13.556;2023-07-20T10:57:42;100861.91;;;22.03;60.57
7052;BME280;3567;52.444;13.556;2023-07-20T11:00:12;100853.91;;;21.79;61.00
7052;BME280;3567;52.444;13.556;2023-07-20T11:02:47;100864.88;;;21.60;62.30
7052;BME280;3567;52.444;13.556;2023-07-20T11:05:47;100861.91;;;21.42;61.88
7052;BME280;3567;52.444;13.556;2023-07-20T11:08:40;100863.00;;;21.23;62.12
7052;BME280;3567;52.444;13.556;2023-07-20T11:11:21;100869.78;;;21.06;63.79
7052;BME280;3567;52.444;13.556;2023-07-20T11:16:43;100859.72;;;20.88;64.39
7052;BME280;3567;52.444;13.556;2023-07-20T11:19:25;100869.63;;;20.98;65.04
7052;BME280;3567;52.444;13.556;2023-07-20T11:21:56;100877.47;;;21.04;63.54
7052;BME280;3567;52.444;13.556;2023-07-20T11:24:22;100883.00;;;21.51;63.78
7052;BME280;3567;52.444;13.556;2023-07-20T11:26:50;100881.59;;;22.00;64.36
7052;BME280;3567;52.444;13.556;2023-07-20T11:29:16;100877.28;;;22.54;63.43
7052;BME280;3567;52.444;13.556;2023-07-20T11:31:46;100867.31;;;22.85;59.57
7052;BME280;3567;52.444;13.556;2023-07-20T11:34:17;100868.09;;;22.99;60.05
7052;BME280;3567;52.444;13.556;2023-07-20T11:36:50;100864.97;;;23.29;56.53
7052;BME280;3567;52.444;13.556;2023-07-20T11:39:17;100870.25;;;23.25;57.29
7052;BME280;3567;52.444;13.556;2023-07-20T11:41:57;100876.72;;;23.29;59.04
7052;BME280;3567;52.444;13.556;2023-07-20T11:44:24;100871.25;;;23.29;56.69
7052;BME280;3567;52.444;13.556;2023-07-20T11:47:01;100874.00;;;22.93;55.22
7052;BME280;3567;52.444;13.556;2023-07-20T11:49:35;100870.19;;;22.53;57.37
7052;BME280;3567;52.444;13.556;2023-07-20T11:54:34;100873.00;;;21.92;60.22
7052;BME280;3567;52.444;13.556;2023-07-20T11:57:02;100873.41;;;22.00;60.45
7052;BME280;3567;52.444;13.556;2023-07-20T11:59:32;100874.03;;;21.96;60.89
7052;BME280;3567;52.444;13.556;2023-07-20T12:02:14;100876.31;;;22.22;61.94
7052;BME280;3567;52.444;13.556;2023-07-20T12:04:43;100879.72;;;22.28;60.40
7052;BME280;3567;52.444;13.556;2023-07-20T12:07:08;100873.22;;;22.10;59.08
7052;BME280;3567;52.444;13.556;2023-07-20T12:09:34;100874.56;;;22.40;61.11
7052;BME280;3567;52.444;13.556;2023-07-20T12:12:09;100873.19;;;22.92;59.79
7052;BME280;3567;52.444;13.556;2023-07-20T12:14:36;100871.53;;;23.27;59.20
7052;BME280;3567;52.444;13.556;2023-07-20T12:17:04;100858.31;;;23.66;58.84
7052;BME280;3567;52.444;13.556;2023-07-20T12:19:38;100864.16;;;24.52;55.39
7052;BME280;3567;52.444;13.556;2023-07-20T12:22:14;100842.41;;;24.82;50.62
7052;BME280;3567;52.444;13.556;2023-07-20T12:24:40;100846.19;;;24.29;49.75
7052;BME280;3567;52.444;13.556;2023-07-20T12:27:05;100851.47;;;23.86;51.65
7052;BME280;3567;52.444;13.556;2023-07-20T12:29:31;100859.75;;;23.63;52.73
7052;BME280;3567;52.444;13.556;2023-07-20T12:32:10;100860.88;;;23.40;53.02
7052;BME280;3567;52.444;13.556;2023-07-20T12:34:35;100849.25;;;23.12;53.24
7052;BME280;3567;52.444;13.556;2023-07-20T12:37:03;100857.06;;;22.55;53.73
7052;BME280;3567;52.444;13.556;2023-07-20T12:39:31;100869.53;;;22.33;55.66
7052;BME280;3567;52.444;13.556;2023-07-20T12:42:05;100869.81;;;22.18;56.67
7052;BME280;3567;52.444;13.556;2023-07-20T12:44:39;100869.97;;;21.80;57.71
7052;BME280;3567;52.444;13.556;2023-07-20T12:47:05;100870.91;;;21.57;58.67
7052;BME280;3567;52.444;13.556;2023-07-20T12:49:33;100872.16;;;21.32;60.76
7052;BME280;3567;52.444;13.556;2023-07-20T12:52:05;100879.41;;;21.17;61.96
7052;BME280;3567;52.444;13.556;2023-07-20T12:54:41;100876.63;;;21.04;64.81
7052;BME280;3567;52.444;13.556;2023-07-20T13:00:26;100872.56;;;20.82;67.54
7052;BME280;3567;52.444;13.556;2023-07-20T13:03:01;100876.25;;;20.91;66.63
7052;BME280;3567;52.444;13.556;2023-07-20T13:05:41;100877.19;;;21.19;66.85
7052;BME280;3567;52.444;13.556;2023-07-20T13:08:18;100867.22;;;21.94;65.53
7052;BME280;3567;52.444;13.556;2023-07-20T13:10:50;100869.13;;;22.90;59.41
7052;BME280;3567;52.444;13.556;2023-07-20T13:13:16;100848.88;;;23.49;53.15
7052;BME280;3567;52.444;13.556;2023-07-20T13:15:44;100839.59;;;23.90;50.96
7052;BME280;3567;52.444;13.556;2023-07-20T13:18:12;100827.88;;;24.38;47.39
7052;BME280;3567;52.444;13.556;2023-07-20T13:20:38;100834.38;;;24.68;46.64
7052;BME280;3567;52.444;13.556;2023-07-20T13:23:11;100814.88;;;25.04;45.07
7052;BME280;3567;52.444;13.556;2023-07-20T13:25:42;100809.53;;;25.25;44.18
7052;BME280;3567;52.444;13.556;2023-07-20T13:28:11;100810.41;;;25.55;43.83